sensor_id;sensor_type;location;lat;lon;timestamp;temperature;humidity
3504;DHT22;1766;53.490;10.174;2023-05-02T00:01:39;18.50;37.70
3504;DHT22;1766;53.490;10.174;2023-05-02T00:03:42;18.50;37.90
3504;DHT22;1766;53.490;10.174;2023-05-02T00:05:44;18.50;38.00
3504;DHT22;1766;53.490;10.174;2023-05-02T00:07:46;18.50;38.10
3504;DHT22;1766;53.490;10.174;2023-05-02T00:09:48;18.50;38.30
3504;DHT22;1766;53.490;10.174;2023-05-02T00:11:50;18.40;38.40
3504;DHT22;1766;53.490;10.174;2023-05-02T00:13:51;18.50;38.70
3504;DHT22;1766;53.490;10.174;2023-05-02T00:15:53;18.40;38.70
3504;DHT22;1766;53.490;10.174;2023-05-02T00:17:55;18.40;38.90
3504;DHT22;1766;53.490;10.174;2023-05-02T00:19:58;18.40;38.90
3504;DHT22;1766;53.490;10.174;2023-05-02T00:22:00;18.30;39.10
3504;DHT22;1766;53.490;10.174;2023-05-02T00:24:01;18.30;39.30
3504;DHT22;1766;53.490;10.174;2023-05-02T00:26:07;18.30;39.50
3504;DHT22;1766;53.490;10.174;2023-05-02T00:28:10;18.30;39.70
3504;DHT22;1766;53.490;10.174;2023-05-02T00:30:13;18.30;39.90
3504;DHT22;1766;53.490;10.174;2023-05-02T00:32:15;18.30;40.10
3504;DHT22;1766;53.490;10.174;2023-05-02T00:34:17;18.30;40.20
3504;DHT22;1766;53.490;10.174;2023-05-02T00:36:20;18.20;40.50
3504;DHT22;1766;53.490;10.174;2023-05-02T00:38:22;18.20;40.60
3504;DHT22;1766;53.490;10.174;2023-05-02T00:40:23;18.10;40.70
3504;DHT22;1766;53.490;10.174;2023-05-02T00:42:25;18.10;40.90
3504;DHT22;1766;53.490;10.174;2023-05-02T00:44:28;18.20;41.10
3504;DHT22;1766;53.490;10.174;2023-05-02T00:46:31;18.20;41.30
3504;DHT22;1766;53.490;10.174;2023-05-02T00:48:33;18.30;41.50
3504;DHT22;1766;53.490;10.174;2023-05-02T00:50:36;18.20;41.60
3504;DHT22;1766;53.490;10.174;2023-05-02T00:52:41;18.20;41.60
3504;DHT22;1766;53.490;10.174;2023-05-02T00:54:43;18.20;41.90
3504;DHT22;1766;53.490;10.174;2023-05-02T00:56:45;18.20;41.90
3504;DHT22;1766;53.490;10.174;2023-05-02T00:58:47;18.30;42.10
3504;DHT22;1766;53.490;10.174;2023-05-02T01:01:01;18.30;42.10
3504;DHT22;1766;53.490;10.174;2023-05-02T01:03:14;18.30;42.20
3504;DHT22;1766;53.490;10.174;2023-05-02T01:05:21;18.30;42.20
3504;DHT22;1766;53.490;10.174;2023-05-02T01:07:40;18.30;42.20
3504;DHT22;1766;53.490;10.174;2023-05-02T01:09:56;18.30;42.40
3504;DHT22;1766;53.490;10.174;2023-05-02T01:12:15;18.30;42.40
3504;DHT22;1766;53.490;10.174;2023-05-02T01:14:20;18.30;42.50
3504;DHT22;1766;53.490;10.174;2023-05-02T01:16:23;18.40;42.60
3504;DHT22;1766;53.490;10.174;2023-05-02T01:18:27;18.40;42.50
3504;DHT22;1766;53.490;10.174;2023-05-02T01:20:35;18.40;42.70
3504;DHT22;1766;53.490;10.174;2023-05-02T01:22:38;18.40;42.70
3504;DHT22;1766;53.490;10.174;2023-05-02T01:24:50;18.40;42.70
3504;DHT22;1766;53.490;10.174;2023-05-02T01:27:03;18.40;43.00
3504;DHT22;1766;53.490;10.174;2023-05-02T01:29:13;18.50;43.00
3504;DHT22;1766;53.490;10.174;2023-05-02T01:31:17;18.50;43.00
3504;DHT22;1766;53.490;10.174;2023-05-02T01:33:20;18.40;42.80
3504;DHT22;1766;53.490;10.174;2023-05-02T01:35:23;18.40;43.00
3504;DHT22;1766;53.490;10.174;2023-05-02T01:37:27;18.40;43.10
3504;DHT22;1766;53.490;10.174;2023-05-02T01:39:31;18.40;43.20
3504;DHT22;1766;53.490;10.174;2023-05-02T01:41:35;18.30;43.70
3504;DHT22;1766;53.490;10.174;2023-05-02T01:43:38;18.40;43.40
3504;DHT22;1766;53.490;10.174;2023-05-02T01:45:44;18.50;43.60
3504;DHT22;1766;53.490;10.174;2023-05-02T01:47:46;18.40;43.70
3504;DHT22;1766;53.490;10.174;2023-05-02T01:49:49;18.40;43.80
3504;DHT22;1766;53.490;10.174;2023-05-02T01:51:51;18.30;43.90
3504;DHT22;1766;53.490;10.174;2023-05-02T01:53:53;18.40;44.20
3504;DHT22;1766;53.490;10.174;2023-05-02T01:55:56;18.40;44.20
3504;DHT22;1766;53.490;10.174;2023-05-02T01:58:00;18.30;44.30
3504;DHT22;1766;53.490;10.174;2023-05-02T02:02:06;18.30;44.30
3504;DHT22;1766;53.490;10.174;2023-05-02T02:04:10;18.30;44.30
3504;DHT22;1766;53.490;10.174;2023-05-02T02:06:15;18.30;44.40
3504;DHT22;1766;53.490;10.174;2023-05-02T02:08:17;18.30;44.60
3504;DHT22;1766;53.490;10.174;2023-05-02T02:10:19;18.20;44.70
3504;DHT22;1766;53.490;10.174;2023-05-02T02:12:25;18.20;44.80
3504;DHT22;1766;53.490;10.174;2023-05-02T02:14:32;18.20;45.00
3504;DHT22;1766;53.490;10.174;2023-05-02T02:16:37;18.10;45.20
3504;DHT22;1766;53.490;10.174;2023-05-02T02:18:43;18.10;45.20
3504;DHT22;1766;53.490;10.174;2023-05-02T02:20:46;18.00;45.20
3504;DHT22;1766;53.490;10.174;2023-05-02T02:22:49;18.00;45.30
3504;DHT22;1766;53.490;10.174;2023-05-02T02:24:52;18.10;45.50
3504;DHT22;1766;53.490;10.174;2023-05-02T02:26:54;18.00;45.50
3504;DHT22;1766;53.490;10.174;2023-05-02T02:28:56;18.00;45.50
3504;DHT22;1766;53.490;10.174;2023-05-02T02:30:57;17.90;45.50
3504;DHT22;1766;53.490;10.174;2023-05-02T02:32:59;17.90;45.60
3504;DHT22;1766;53.490;10.174;2023-05-02T02:35:02;17.90;45.70
3504;DHT22;1766;53.490;10.174;2023-05-02T02:37:10;17.90;45.80
3504;DHT22;1766;53.490;10.174;2023-05-02T02:39:24;17.90;45.80
3504;DHT22;1766;53.490;10.174;2023-05-02T02:41:39;17.80;45.80
3504;DHT22;1766;53.490;10.174;2023-05-02T02:43:52;17.80;45.90
3504;DHT22;1766;53.490;10.174;2023-05-02T02:46:09;17.90;46.10
3504;DHT22;1766;53.490;10.174;2023-05-02T02:48:21;17.80;46.30
3504;DHT22;1766;53.490;10.174;2023-05-02T02:50:34;17.70;46.40
3504;DHT22;1766;53.490;10.174;2023-05-02T02:52:47;17.70;46.60
3504;DHT22;1766;53.490;10.174;2023-05-02T02:54:57;17.70;46.50
3504;DHT22;1766;53.490;10.174;2023-05-02T02:57:03;17.70;46.60
3504;DHT22;1766;53.490;10.174;2023-05-02T02:59:13;17.70;46.50
3504;DHT22;1766;53.490;10.174;2023-05-02T03:01:19;17.60;46.50
3504;DHT22;1766;53.490;10.174;2023-05-02T03:03:25;17.60;46.60
3504;DHT22;1766;53.490;10.174;2023-05-02T03:05:32;17.70;46.70
3504;DHT22;1766;53.490;10.174;2023-05-02T03:07:34;17.70;46.70
3504;DHT22;1766;53.490;10.174;2023-05-02T03:09:40;17.70;46.60
3504;DHT22;1766;53.490;10.174;2023-05-02T03:11:42;17.60;46.60
3504;DHT22;1766;53.490;10.174;2023-05-02T03:13:45;17.70;46.60
3504;DHT22;1766;53.490;10.174;2023-05-02T03:16:15;17.70;46.70
3504;DHT22;1766;53.490;10.174;2023-05-02T03:18:30;17.50;46.80
3504;DHT22;1766;53.490;10.174;2023-05-02T03:20:34;17.60;46.60
3504;DHT22;1766;53.490;10.174;2023-05-02T03:22:36;17.60;46.60
3504;DHT22;1766;53.490;10.174;2023-05-02T03:24:37;17.40;46.30
3504;DHT22;1766;53.490;10.174;2023-05-02T03:26:39;17.30;46.40
3504;DHT22;1766;53.490;10.174;2023-05-02T03:28:41;17.20;46.40
3504;DHT22;1766;53.490;10.174;2023-05-02T03:30:45;17.10;46.30
3504;DHT22;1766;53.490;10.174;2023-05-02T03:32:47;17.10;46.20
3504;DHT22;1766;53.490;10.174;2023-05-02T03:34:49;17.00;46.10
3504;DHT22;1766;53.490;10.174;2023-05-02T03:36:53;17.00;46.10
3504;DHT22;1766;53.490;10.174;2023-05-02T03:38:54;16.90;45.90
3504;DHT22;1766;53.490;10.174;2023-05-02T03:40:56;17.00;45.90
3504;DHT22;1766;53.490;10.174;2023-05-02T03:42:58;17.00;45.80
3504;DHT22;1766;53.490;10.174;2023-05-02T03:45:00;16.90;45.60
3504;DHT22;1766;53.490;10.174;2023-05-02T03:47:02;17.00;45.50
3504;DHT22;1766;53.490;10.174;2023-05-02T03:49:04;17.00;45.40
3504;DHT22;1766;53.490;10.174;2023-05-02T03:51:05;16.90;45.20
3504;DHT22;1766;53.490;10.174;2023-05-02T03:53:10;16.90;44.80
3504;DHT22;1766;53.490;10.174;2023-05-02T03:55:12;16.80;44.40
3504;DHT22;1766;53.490;10.174;2023-05-02T03:57:14;16.70;44.40
3504;DHT22;1766;53.490;10.174;2023-05-02T03:59:16;16.60;44.40
3504;DHT22;1766;53.490;10.174;2023-05-02T04:01:18;16.50;44.20
3504;DHT22;1766;53.490;10.174;2023-05-02T04:03:20;16.50;44.10
3504;DHT22;1766;53.490;10.174;2023-05-02T04:05:23;16.50;44.20
3504;DHT22;1766;53.490;10.174;2023-05-02T04:07:25;16.40;43.90
3504;DHT22;1766;53.490;10.174;2023-05-02T04:09:28;16.40;43.70
3504;DHT22;1766;53.490;10.174;2023-05-02T04:11:29;16.40;43.30
3504;DHT22;1766;53.490;10.174;2023-05-02T04:13:31;16.30;43.30
3504;DHT22;1766;53.490;10.174;2023-05-02T04:15:33;16.20;43.30
3504;DHT22;1766;53.490;10.174;2023-05-02T04:17:35;16.20;43.30
3504;DHT22;1766;53.490;10.174;2023-05-02T04:19:37;16.10;43.10
3504;DHT22;1766;53.490;10.174;2023-05-02T04:21:38;16.20;43.10
3504;DHT22;1766;53.490;10.174;2023-05-02T04:23:40;16.20;43.00
3504;DHT22;1766;53.490;10.174;2023-05-02T04:25:51;16.10;42.80
3504;DHT22;1766;53.490;10.174;2023-05-02T04:27:53;16.10;43.20
3504;DHT22;1766;53.490;10.174;2023-05-02T04:29:55;16.20;42.40
3504;DHT22;1766;53.490;10.174;2023-05-02T04:31:57;16.20;42.30
3504;DHT22;1766;53.490;10.174;2023-05-02T04:33:59;16.10;42.20
3504;DHT22;1766;53.490;10.174;2023-05-02T04:36:01;16.10;42.20
3504;DHT22;1766;53.490;10.174;2023-05-02T04:38:03;16.00;42.00
3504;DHT22;1766;53.490;10.174;2023-05-02T04:40:05;16.00;42.00
3504;DHT22;1766;53.490;10.174;2023-05-02T04:42:09;16.10;42.10
3504;DHT22;1766;53.490;10.174;2023-05-02T04:44:11;16.00;41.80
3504;DHT22;1766;53.490;10.174;2023-05-02T04:46:13;16.10;41.90
3504;DHT22;1766;53.490;10.174;2023-05-02T04:48:14;16.10;41.70
3504;DHT22;1766;53.490;10.174;2023-05-02T04:50:16;16.10;41.60
3504;DHT22;1766;53.490;10.174;2023-05-02T04:52:18;16.00;41.50
3504;DHT22;1766;53.490;10.174;2023-05-02T04:54:20;16.10;41.50
3504;DHT22;1766;53.490;10.174;2023-05-02T04:56:22;16.20;41.60
3504;DHT22;1766;53.490;10.174;2023-05-02T04:58:25;16.10;41.20
3504;DHT22;1766;53.490;10.174;2023-05-02T05:00:27;16.10;41.00
3504;DHT22;1766;53.490;10.174;2023-05-02T05:02:29;16.20;40.80
3504;DHT22;1766;53.490;10.174;2023-05-02T05:04:31;16.20;40.70
3504;DHT22;1766;53.490;10.174;2023-05-02T05:06:33;16.10;40.50
3504;DHT22;1766;53.490;10.174;2023-05-02T05:08:35;16.20;40.50
3504;DHT22;1766;53.490;10.174;2023-05-02T05:10:37;16.20;40.30
3504;DHT22;1766;53.490;10.174;2023-05-02T05:12:39;16.20;40.20
3504;DHT22;1766;53.490;10.174;2023-05-02T05:14:42;16.30;40.00
3504;DHT22;1766;53.490;10.174;2023-05-02T05:16:44;16.30;39.80
3504;DHT22;1766;53.490;10.174;2023-05-02T05:18:46;16.30;39.80
3504;DHT22;1766;53.490;10.174;2023-05-02T05:20:48;16.50;39.80
3504;DHT22;1766;53.490;10.174;2023-05-02T05:22:50;16.40;39.60
3504;DHT22;1766;53.490;10.174;2023-05-02T05:24:52;16.40;39.30
3504;DHT22;1766;53.490;10.174;2023-05-02T05:26:54;16.40;39.30
3504;DHT22;1766;53.490;10.174;2023-05-02T05:28:56;16.50;39.00
3504;DHT22;1766;53.490;10.174;2023-05-02T05:31:04;16.30;38.70
3504;DHT22;1766;53.490;10.174;2023-05-02T05:33:06;16.30;38.90
3504;DHT22;1766;53.490;10.174;2023-05-02T05:35:08;16.40;38.80
3504;DHT22;1766;53.490;10.174;2023-05-02T05:37:11;16.40;38.80
3504;DHT22;1766;53.490;10.174;2023-05-02T05:39:13;16.50;38.70
3504;DHT22;1766;53.490;10.174;2023-05-02T05:41:14;16.50;38.30
3504;DHT22;1766;53.490;10.174;2023-05-02T05:43:16;16.50;38.40
3504;DHT22;1766;53.490;10.174;2023-05-02T05:45:18;16.60;38.30
3504;DHT22;1766;53.490;10.174;2023-05-02T05:47:21;16.60;38.20
3504;DHT22;1766;53.490;10.174;2023-05-02T05:49:23;16.60;38.00
3504;DHT22;1766;53.490;10.174;2023-05-02T05:51:25;16.60;37.90
3504;DHT22;1766;53.490;10.174;2023-05-02T05:53:27;16.60;37.80
3504;DHT22;1766;53.490;10.174;2023-05-02T05:55:29;16.50;37.60
3504;DHT22;1766;53.490;10.174;2023-05-02T05:57:31;16.50;37.40
3504;DHT22;1766;53.490;10.174;2023-05-02T05:59:34;16.40;37.30
3504;DHT22;1766;53.490;10.174;2023-05-02T06:01:36;16.40;37.30
3504;DHT22;1766;53.490;10.174;2023-05-02T06:03:39;16.40;37.20
3504;DHT22;1766;53.490;10.174;2023-05-02T06:05:41;16.40;37.00
3504;DHT22;1766;53.490;10.174;2023-05-02T06:07:43;16.30;36.70
3504;DHT22;1766;53.490;10.174;2023-05-02T06:09:45;16.40;36.60
3504;DHT22;1766;53.490;10.174;2023-05-02T06:11:46;16.30;36.40
3504;DHT22;1766;53.490;10.174;2023-05-02T06:13:48;16.30;36.20
3504;DHT22;1766;53.490;10.174;2023-05-02T06:15:51;16.30;36.20
3504;DHT22;1766;53.490;10.174;2023-05-02T06:17:53;16.20;36.00
3504;DHT22;1766;53.490;10.174;2023-05-02T06:19:56;16.10;36.00
3504;DHT22;1766;53.490;10.174;2023-05-02T06:21:58;16.10;36.00
3504;DHT22;1766;53.490;10.174;2023-05-02T06:24:00;16.20;36.00
3504;DHT22;1766;53.490;10.174;2023-05-02T06:26:02;16.10;35.90
3504;DHT22;1766;53.490;10.174;2023-05-02T06:28:05;16.10;35.80
3504;DHT22;1766;53.490;10.174;2023-05-02T06:30:09;16.10;35.60
3504;DHT22;1766;53.490;10.174;2023-05-02T06:32:11;16.10;35.70
3504;DHT22;1766;53.490;10.174;2023-05-02T06:34:12;16.00;35.50
3504;DHT22;1766;53.490;10.174;2023-05-02T06:36:16;16.10;35.60
3504;DHT22;1766;53.490;10.174;2023-05-02T06:38:18;16.00;35.50
3504;DHT22;1766;53.490;10.174;2023-05-02T06:40:20;16.00;35.50
3504;DHT22;1766;53.490;10.174;2023-05-02T06:42:21;15.90;35.20
3504;DHT22;1766;53.490;10.174;2023-05-02T06:44:23;16.10;35.10
3504;DHT22;1766;53.490;10.174;2023-05-02T06:46:27;16.00;34.70
3504;DHT22;1766;53.490;10.174;2023-05-02T06:48:30;15.90;34.40
3504;DHT22;1766;53.490;10.174;2023-05-02T06:50:32;15.90;34.50
3504;DHT22;1766;53.490;10.174;2023-05-02T06:52:35;15.90;34.50
3504;DHT22;1766;53.490;10.174;2023-05-02T06:54:37;16.00;34.30
3504;DHT22;1766;53.490;10.174;2023-05-02T06:56:39;15.90;34.20
3504;DHT22;1766;53.490;10.174;2023-05-02T06:58:40;16.00;34.20
3504;DHT22;1766;53.490;10.174;2023-05-02T07:00:42;16.10;34.10
3504;DHT22;1766;53.490;10.174;2023-05-02T07:02:45;16.10;34.00
3504;DHT22;1766;53.490;10.174;2023-05-02T07:04:47;16.10;34.00
3504;DHT22;1766;53.490;10.174;2023-05-02T07:06:49;16.10;33.90
3504;DHT22;1766;53.490;10.174;2023-05-02T07:08:52;16.10;33.70
3504;DHT22;1766;53.490;10.174;2023-05-02T07:10:54;16.20;33.70
3504;DHT22;1766;53.490;10.174;2023-05-02T07:12:56;16.20;33.50
3504;DHT22;1766;53.490;10.174;2023-05-02T07:14:58;16.10;33.50
3504;DHT22;1766;53.490;10.174;2023-05-02T07:17:00;16.00;33.50
3504;DHT22;1766;53.490;10.174;2023-05-02T07:19:01;15.90;33.10
3504;DHT22;1766;53.490;10.174;2023-05-02T07:21:06;16.00;33.20
3504;DHT22;1766;53.490;10.174;2023-05-02T07:23:07;15.90;33.00
3504;DHT22;1766;53.490;10.174;2023-05-02T07:25:10;16.00;33.10
3504;DHT22;1766;53.490;10.174;2023-05-02T07:27:12;16.10;33.00
3504;DHT22;1766;53.490;10.174;2023-05-02T07:29:14;16.20;33.10
3504;DHT22;1766;53.490;10.174;2023-05-02T07:31:16;16.20;32.90
3504;DHT22;1766;53.490;10.174;2023-05-02T07:33:18;16.30;33.00
3504;DHT22;1766;53.490;10.174;2023-05-02T07:35:20;16.40;32.60
3504;DHT22;1766;53.490;10.174;2023-05-02T07:37:22;16.40;32.40
3504;DHT22;1766;53.490;10.174;2023-05-02T07:39:24;16.50;32.30
3504;DHT22;1766;53.490;10.174;2023-05-02T07:41:27;16.50;31.60
3504;DHT22;1766;53.490;10.174;2023-05-02T07:43:29;16.40;31.10
3504;DHT22;1766;53.490;10.174;2023-05-02T07:45:30;16.40;31.40
3504;DHT22;1766;53.490;10.174;2023-05-02T07:47:33;16.40;31.20
3504;DHT22;1766;53.490;10.174;2023-05-02T07:49:35;16.40;31.30
3504;DHT22;1766;53.490;10.174;2023-05-02T07:51:37;16.40;31.40
3504;DHT22;1766;53.490;10.174;2023-05-02T07:53:39;16.50;31.40
3504;DHT22;1766;53.490;10.174;2023-05-02T07:55:41;16.70;31.40
3504;DHT22;1766;53.490;10.174;2023-05-02T07:57:44;16.80;31.30
3504;DHT22;1766;53.490;10.174;2023-05-02T07:59:45;17.00;31.40
3504;DHT22;1766;53.490;10.174;2023-05-02T08:01:47;17.10;31.10
3504;DHT22;1766;53.490;10.174;2023-05-02T08:03:49;17.10;30.80
3504;DHT22;1766;53.490;10.174;2023-05-02T08:05:51;17.20;30.40
3504;DHT22;1766;53.490;10.174;2023-05-02T08:07:52;17.20;30.10
3504;DHT22;1766;53.490;10.174;2023-05-02T08:09:54;17.20;30.30
3504;DHT22;1766;53.490;10.174;2023-05-02T08:12:09;17.30;30.30
3504;DHT22;1766;53.490;10.174;2023-05-02T08:14:12;17.30;30.20
3504;DHT22;1766;53.490;10.174;2023-05-02T08:16:14;17.40;30.30
3504;DHT22;1766;53.490;10.174;2023-05-02T08:18:15;17.40;30.20
3504;DHT22;1766;53.490;10.174;2023-05-02T08:20:17;17.40;30.20
3504;DHT22;1766;53.490;10.174;2023-05-02T08:22:19;17.50;30.00
3504;DHT22;1766;53.490;10.174;2023-05-02T08:24:21;17.50;29.90
3504;DHT22;1766;53.490;10.174;2023-05-02T08:26:23;17.50;29.60
3504;DHT22;1766;53.490;10.174;2023-05-02T08:28:25;17.50;29.60
3504;DHT22;1766;53.490;10.174;2023-05-02T08:30:28;17.60;29.50
3504;DHT22;1766;53.490;10.174;2023-05-02T08:32:31;17.70;29.60
3504;DHT22;1766;53.490;10.174;2023-05-02T08:34:33;17.70;29.10
3504;DHT22;1766;53.490;10.174;2023-05-02T08:36:34;17.70;28.90
3504;DHT22;1766;53.490;10.174;2023-05-02T08:38:37;17.60;28.60
3504;DHT22;1766;53.490;10.174;2023-05-02T08:40:39;17.50;28.60
3504;DHT22;1766;53.490;10.174;2023-05-02T08:42:41;17.40;28.60
3504;DHT22;1766;53.490;10.174;2023-05-02T08:44:44;17.40;28.60
3504;DHT22;1766;53.490;10.174;2023-05-02T08:46:48;17.40;28.60
3504;DHT22;1766;53.490;10.174;2023-05-02T08:48:51;17.30;28.50
3504;DHT22;1766;53.490;10.174;2023-05-02T08:50:54;17.30;28.50
3504;DHT22;1766;53.490;10.174;2023-05-02T08:52:57;17.30;28.50
3504;DHT22;1766;53.490;10.174;2023-05-02T08:55:00;17.30;28.50
3504;DHT22;1766;53.490;10.174;2023-05-02T08:57:02;17.30;28.60
3504;DHT22;1766;53.490;10.174;2023-05-02T08:59:05;17.40;28.60
3504;DHT22;1766;53.490;10.174;2023-05-02T09:01:10;17.50;28.70
3504;DHT22;1766;53.490;10.174;2023-05-02T09:03:22;17.60;28.80
3504;DHT22;1766;53.490;10.174;2023-05-02T09:05:32;17.70;28.70
3504;DHT22;1766;53.490;10.174;2023-05-02T09:07:44;17.80;28.60
3504;DHT22;1766;53.490;10.174;2023-05-02T09:09:47;17.80;28.30
3504;DHT22;1766;53.490;10.174;2023-05-02T09:11:49;17.90;28.50
3504;DHT22;1766;53.490;10.174;2023-05-02T09:13:52;17.80;28.30
3504;DHT22;1766;53.490;10.174;2023-05-02T09:15:57;17.70;28.20
3504;DHT22;1766;53.490;10.174;2023-05-02T09:18:00;17.70;28.50
3504;DHT22;1766;53.490;10.174;2023-05-02T09:20:03;17.80;28.40
3504;DHT22;1766;53.490;10.174;2023-05-02T09:22:06;17.80;28.30
3504;DHT22;1766;53.490;10.174;2023-05-02T09:24:15;17.90;28.20
3504;DHT22;1766;53.490;10.174;2023-05-02T09:26:19;17.90;28.30
3504;DHT22;1766;53.490;10.174;2023-05-02T09:28:37;18.10;28.30
3504;DHT22;1766;53.490;10.174;2023-05-02T09:30:40;18.20;28.20
3504;DHT22;1766;53.490;10.174;2023-05-02T09:32:45;18.30;27.80
3504;DHT22;1766;53.490;10.174;2023-05-02T09:35:05;18.30;27.80
3504;DHT22;1766;53.490;10.174;2023-05-02T09:37:07;18.30;27.80
3504;DHT22;1766;53.490;10.174;2023-05-02T09:39:13;18.40;27.80
3504;DHT22;1766;53.490;10.174;2023-05-02T09:41:16;18.50;28.00
3504;DHT22;1766;53.490;10.174;2023-05-02T09:43:21;18.70;28.00
3504;DHT22;1766;53.490;10.174;2023-05-02T09:45:24;18.70;27.80
3504;DHT22;1766;53.490;10.174;2023-05-02T09:47:26;18.80;28.00
3504;DHT22;1766;53.490;10.174;2023-05-02T09:49:38;19.00;27.80
3504;DHT22;1766;53.490;10.174;2023-05-02T09:51:42;19.10;27.50
3504;DHT22;1766;53.490;10.174;2023-05-02T09:53:45;19.10;27.40
3504;DHT22;1766;53.490;10.174;2023-05-02T09:55:48;19.10;27.30
3504;DHT22;1766;53.490;10.174;2023-05-02T09:58:00;19.20;27.20
3504;DHT22;1766;53.490;10.174;2023-05-02T10:00:02;19.20;27.10
3504;DHT22;1766;53.490;10.174;2023-05-02T10:02:05;19.40;27.10
3504;DHT22;1766;53.490;10.174;2023-05-02T10:04:11;19.50;27.30
3504;DHT22;1766;53.490;10.174;2023-05-02T10:06:18;19.60;27.30
3504;DHT22;1766;53.490;10.174;2023-05-02T10:08:24;19.70;27.20
3504;DHT22;1766;53.490;10.174;2023-05-02T10:10:28;19.70;26.80
3504;DHT22;1766;53.490;10.174;2023-05-02T10:12:32;19.60;26.80
3504;DHT22;1766;53.490;10.174;2023-05-02T10:14:39;19.50;26.70
3504;DHT22;1766;53.490;10.174;2023-05-02T10:16:48;19.20;26.30
3504;DHT22;1766;53.490;10.174;2023-05-02T10:18:59;19.10;26.40
3504;DHT22;1766;53.490;10.174;2023-05-02T10:21:07;19.10;26.70
3504;DHT22;1766;53.490;10.174;2023-05-02T10:23:09;19.20;26.90
3504;DHT22;1766;53.490;10.174;2023-05-02T10:25:13;19.40;27.10
3504;DHT22;1766;53.490;10.174;2023-05-02T10:27:15;18.70;26.20
3504;DHT22;1766;53.490;10.174;2023-05-02T10:29:18;19.60;26.80
3504;DHT22;1766;53.490;10.174;2023-05-02T10:31:20;19.60;27.00
3504;DHT22;1766;53.490;10.174;2023-05-02T10:33:22;19.70;27.20
3504;DHT22;1766;53.490;10.174;2023-05-02T10:35:26;19.70;27.30
3504;DHT22;1766;53.490;10.174;2023-05-02T10:37:29;19.90;27.30
3504;DHT22;1766;53.490;10.174;2023-05-02T10:39:33;19.80;27.20
3504;DHT22;1766;53.490;10.174;2023-05-02T10:41:37;19.70;27.10
3504;DHT22;1766;53.490;10.174;2023-05-02T10:43:45;19.60;27.20
3504;DHT22;1766;53.490;10.174;2023-05-02T10:45:48;19.60;27.20
3504;DHT22;1766;53.490;10.174;2023-05-02T10:47:50;19.50;27.00
3504;DHT22;1766;53.490;10.174;2023-05-02T10:49:56;19.30;27.10
3504;DHT22;1766;53.490;10.174;2023-05-02T10:52:27;19.30;27.30
3504;DHT22;1766;53.490;10.174;2023-05-02T10:54:29;19.20;27.50
3504;DHT22;1766;53.490;10.174;2023-05-02T10:56:31;19.20;27.20
3504;DHT22;1766;53.490;10.174;2023-05-02T10:58:34;19.20;27.10
3504;DHT22;1766;53.490;10.174;2023-05-02T11:00:36;19.20;27.30
3504;DHT22;1766;53.490;10.174;2023-05-02T11:02:53;19.30;27.40
3504;DHT22;1766;53.490;10.174;2023-05-02T11:05:00;19.50;27.30
3504;DHT22;1766;53.490;10.174;2023-05-02T11:07:18;19.90;27.30
3504;DHT22;1766;53.490;10.174;2023-05-02T11:09:35;20.20;27.20
3504;DHT22;1766;53.490;10.174;2023-05-02T11:11:37;20.30;26.90
3504;DHT22;1766;53.490;10.174;2023-05-02T11:13:49;20.50;27.00
3504;DHT22;1766;53.490;10.174;2023-05-02T11:15:53;20.50;26.90
3504;DHT22;1766;53.490;10.174;2023-05-02T11:17:58;20.60;26.80
3504;DHT22;1766;53.490;10.174;2023-05-02T11:20:17;20.40;26.60
3504;DHT22;1766;53.490;10.174;2023-05-02T11:22:34;20.30;26.70
3504;DHT22;1766;53.490;10.174;2023-05-02T11:24:37;20.20;26.50
3504;DHT22;1766;53.490;10.174;2023-05-02T11:26:39;20.10;27.10
3504;DHT22;1766;53.490;10.174;2023-05-02T11:28:42;20.20;26.70
3504;DHT22;1766;53.490;10.174;2023-05-02T11:30:48;20.30;26.60
3504;DHT22;1766;53.490;10.174;2023-05-02T11:35:23;20.20;26.80
3504;DHT22;1766;53.490;10.174;2023-05-02T11:37:26;20.30;26.90
3504;DHT22;1766;53.490;10.174;2023-05-02T11:39:28;20.30;26.90
3504;DHT22;1766;53.490;10.174;2023-05-02T11:41:37;20.10;27.00
3504;DHT22;1766;53.490;10.174;2023-05-02T11:43:40;19.90;27.10
3504;DHT22;1766;53.490;10.174;2023-05-02T11:45:41;19.80;27.00
3504;DHT22;1766;53.490;10.174;2023-05-02T11:47:45;19.90;27.30
3504;DHT22;1766;53.490;10.174;2023-05-02T11:49:47;19.90;27.50
3504;DHT22;1766;53.490;10.174;2023-05-02T11:51:50;20.00;27.30
3504;DHT22;1766;53.490;10.174;2023-05-02T11:53:52;20.10;27.30
3504;DHT22;1766;53.490;10.174;2023-05-02T11:55:55;20.20;27.30
3504;DHT22;1766;53.490;10.174;2023-05-02T11:57:57;20.10;27.20
3504;DHT22;1766;53.490;10.174;2023-05-02T11:59:59;20.10;27.10
3504;DHT22;1766;53.490;10.174;2023-05-02T12:02:01;20.10;27.30
3504;DHT22;1766;53.490;10.174;2023-05-02T12:04:06;20.00;27.20
3504;DHT22;1766;53.490;10.174;2023-05-02T12:06:11;19.90;27.30
3504;DHT22;1766;53.490;10.174;2023-05-02T12:08:18;19.80;27.30
3504;DHT22;1766;53.490;10.174;2023-05-02T12:10:21;19.80;27.40
3504;DHT22;1766;53.490;10.174;2023-05-02T12:12:23;19.70;27.50
3504;DHT22;1766;53.490;10.174;2023-05-02T12:14:26;19.80;27.70
3504;DHT22;1766;53.490;10.174;2023-05-02T12:16:29;20.00;27.90
3504;DHT22;1766;53.490;10.174;2023-05-02T12:18:31;20.10;27.80
3504;DHT22;1766;53.490;10.174;2023-05-02T12:20:35;20.20;27.70
3504;DHT22;1766;53.490;10.174;2023-05-02T12:22:38;20.30;27.40
3504;DHT22;1766;53.490;10.174;2023-05-02T12:24:40;20.50;27.50
3504;DHT22;1766;53.490;10.174;2023-05-02T12:26:42;20.50;27.00
3504;DHT22;1766;53.490;10.174;2023-05-02T12:28:47;20.80;27.00
3504;DHT22;1766;53.490;10.174;2023-05-02T12:30:50;21.30;26.60
3504;DHT22;1766;53.490;10.174;2023-05-02T12:32:56;21.70;26.40
3504;DHT22;1766;53.490;10.174;2023-05-02T12:34:59;21.70;25.80
3504;DHT22;1766;53.490;10.174;2023-05-02T12:37:03;21.60;25.60
3504;DHT22;1766;53.490;10.174;2023-05-02T12:39:05;21.50;25.50
3504;DHT22;1766;53.490;10.174;2023-05-02T12:41:07;21.40;25.30
3504;DHT22;1766;53.490;10.174;2023-05-02T12:43:09;21.10;25.30
3504;DHT22;1766;53.490;10.174;2023-05-02T12:45:15;21.00;25.50
3504;DHT22;1766;53.490;10.174;2023-05-02T12:47:18;20.70;25.60
3504;DHT22;1766;53.490;10.174;2023-05-02T12:49:21;20.50;25.70
3504;DHT22;1766;53.490;10.174;2023-05-02T12:51:23;20.30;25.60
3504;DHT22;1766;53.490;10.174;2023-05-02T12:53:41;20.20;25.70
3504;DHT22;1766;53.490;10.174;2023-05-02T12:55:45;20.20;25.90
3504;DHT22;1766;53.490;10.174;2023-05-02T12:57:47;20.50;25.80
3504;DHT22;1766;53.490;10.174;2023-05-02T12:59:50;20.60;25.70
3504;DHT22;1766;53.490;10.174;2023-05-02T13:01:53;20.70;25.60
3504;DHT22;1766;53.490;10.174;2023-05-02T13:03:55;20.70;25.40
3504;DHT22;1766;53.490;10.174;2023-05-02T13:05:57;20.60;25.30
3504;DHT22;1766;53.490;10.174;2023-05-02T13:07:59;20.50;25.50
3504;DHT22;1766;53.490;10.174;2023-05-02T13:10:02;20.40;25.70
3504;DHT22;1766;53.490;10.174;2023-05-02T13:12:04;20.20;25.80
3504;DHT22;1766;53.490;10.174;2023-05-02T13:14:06;20.10;26.10
3504;DHT22;1766;53.490;10.174;2023-05-02T13:16:08;19.90;26.10
3504;DHT22;1766;53.490;10.174;2023-05-02T13:18:10;19.80;26.10
3504;DHT22;1766;53.490;10.174;2023-05-02T13:20:12;19.90;26.20